sensor_id;sensor_type;location;lat;lon;timestamp;temperature;humidity
9219;DHT22;4644;48.858;9.184;2023-04-08T00:01:43;8.10;99.90
9219;DHT22;4644;48.858;9.184;2023-04-08T00:04:10;8.00;99.90
9219;DHT22;4644;48.858;9.184;2023-04-08T00:06:39;8.00;99.90
9219;DHT22;4644;48.858;9.184;2023-04-08T00:09:06;8.00;99.90
9219;DHT22;4644;48.858;9.184;2023-04-08T00:11:33;8.00;99.90
9219;DHT22;4644;48.858;9.184;2023-04-08T00:14:02;8.00;99.90
9219;DHT22;4644;48.858;9.184;2023-04-08T00:16:29;8.00;99.90
9219;DHT22;4644;48.858;9.184;2023-04-08T00:18:57;8.00;99.90
9219;DHT22;4644;48.858;9.184;2023-04-08T00:21:25;8.00;99.90
9219;DHT22;4644;48.858;9.184;2023-04-08T00:23:52;7.90;99.90
9219;DHT22;4644;48.858;9.184;2023-04-08T00:26:19;7.90;99.90
9219;DHT22;4644;48.858;9.184;2023-04-08T00:28:46;7.90;99.90
9219;DHT22;4644;48.858;9.184;2023-04-08T00:31:13;7.90;99.90
9219;DHT22;4644;48.858;9.184;2023-04-08T00:33:40;7.90;99.90
9219;DHT22;4644;48.858;9.184;2023-04-08T00:36:08;7.90;99.90
9219;DHT22;4644;48.858;9.184;2023-04-08T00:38:36;7.90;99.90
9219;DHT22;4644;48.858;9.184;2023-04-08T00:41:03;7.90;99.90
9219;DHT22;4644;48.858;9.184;2023-04-08T00:43:30;7.90;99.90
9219;DHT22;4644;48.858;9.184;2023-04-08T00:45:57;7.90;99.90
9219;DHT22;4644;48.858;9.184;2023-04-08T00:48:24;7.90;99.90
9219;DHT22;4644;48.858;9.184;2023-04-08T00:50:53;7.80;99.90
9219;DHT22;4644;48.858;9.184;2023-04-08T00:53:21;7.90;99.90
9219;DHT22;4644;48.858;9.184;2023-04-08T00:55:48;7.90;99.90
9219;DHT22;4644;48.858;9.184;2023-04-08T00:58:16;7.90;99.90
9219;DHT22;4644;48.858;9.184;2023-04-08T01:00:48;7.80;99.90
9219;DHT22;4644;48.858;9.184;2023-04-08T01:03:23;7.80;99.90
9219;DHT22;4644;48.858;9.184;2023-04-08T01:05:58;7.80;99.90
9219;DHT22;4644;48.858;9.184;2023-04-08T01:08:28;7.80;99.90
9219;DHT22;4644;48.858;9.184;2023-04-08T01:11:00;7.80;99.90
9219;DHT22;4644;48.858;9.184;2023-04-08T01:13:30;7.80;99.90
9219;DHT22;4644;48.858;9.184;2023-04-08T01:16:00;7.80;99.90
9219;DHT22;4644;48.858;9.184;2023-04-08T01:18:29;7.80;99.90
9219;DHT22;4644;48.858;9.184;2023-04-08T01:20:58;7.80;99.90
9219;DHT22;4644;48.858;9.184;2023-04-08T01:23:39;7.80;99.90
9219;DHT22;4644;48.858;9.184;2023-04-08T01:26:12;7.80;99.90
9219;DHT22;4644;48.858;9.184;2023-04-08T01:28:48;7.80;99.90
9219;DHT22;4644;48.858;9.184;2023-04-08T01:31:17;7.80;99.90
9219;DHT22;4644;48.858;9.184;2023-04-08T01:33:45;7.80;99.90
9219;DHT22;4644;48.858;9.184;2023-04-08T01:36:14;7.80;99.90
9219;DHT22;4644;48.858;9.184;2023-04-08T01:38:42;7.80;99.90
9219;DHT22;4644;48.858;9.184;2023-04-08T01:41:11;7.80;99.90
9219;DHT22;4644;48.858;9.184;2023-04-08T01:43:39;7.80;99.90
9219;DHT22;4644;48.858;9.184;2023-04-08T01:46:10;7.80;99.90
9219;DHT22;4644;48.858;9.184;2023-04-08T01:48:37;7.80;99.90
9219;DHT22;4644;48.858;9.184;2023-04-08T01:51:06;7.70;99.90
9219;DHT22;4644;48.858;9.184;2023-04-08T01:53:33;7.80;99.90
9219;DHT22;4644;48.858;9.184;2023-04-08T01:56:03;7.80;99.90
9219;DHT22;4644;48.858;9.184;2023-04-08T01:58:37;7.70;99.90
9219;DHT22;4644;48.858;9.184;2023-04-08T02:01:10;7.70;99.90
9219;DHT22;4644;48.858;9.184;2023-04-08T02:03:38;7.70;99.90
9219;DHT22;4644;48.858;9.184;2023-04-08T02:06:07;7.70;99.90
9219;DHT22;4644;48.858;9.184;2023-04-08T02:08:34;7.80;99.90
9219;DHT22;4644;48.858;9.184;2023-04-08T02:11:02;7.70;99.90
9219;DHT22;4644;48.858;9.184;2023-04-08T02:13:29;7.70;99.90
9219;DHT22;4644;48.858;9.184;2023-04-08T02:16:03;7.70;99.90
9219;DHT22;4644;48.858;9.184;2023-04-08T02:18:33;7.70;99.90
9219;DHT22;4644;48.858;9.184;2023-04-08T02:21:10;7.70;99.90
9219;DHT22;4644;48.858;9.184;2023-04-08T02:23:39;7.70;99.90
9219;DHT22;4644;48.858;9.184;2023-04-08T02:26:11;7.60;99.90
9219;DHT22;4644;48.858;9.184;2023-04-08T02:28:40;7.60;99.90
9219;DHT22;4644;48.858;9.184;2023-04-08T02:31:10;7.60;99.90
9219;DHT22;4644;48.858;9.184;2023-04-08T02:33:39;7.60;99.90
9219;DHT22;4644;48.858;9.184;2023-04-08T02:36:07;7.50;99.90
9219;DHT22;4644;48.858;9.184;2023-04-08T02:38:34;7.60;99.90
9219;DHT22;4644;48.858;9.184;2023-04-08T02:41:01;7.50;99.90
9219;DHT22;4644;48.858;9.184;2023-04-08T02:43:28;7.50;99.90
9219;DHT22;4644;48.858;9.184;2023-04-08T02:45:57;7.50;99.90
9219;DHT22;4644;48.858;9.184;2023-04-08T02:48:26;7.40;99.90
9219;DHT22;4644;48.858;9.184;2023-04-08T02:50:53;7.40;99.90
9219;DHT22;4644;48.858;9.184;2023-04-08T02:53:22;7.40;99.90
9219;DHT22;4644;48.858;9.184;2023-04-08T02:55:49;7.40;99.90
9219;DHT22;4644;48.858;9.184;2023-04-08T02:58:16;7.40;99.90
9219;DHT22;4644;48.858;9.184;2023-04-08T03:00:43;7.40;99.90
9219;DHT22;4644;48.858;9.184;2023-04-08T03:03:10;7.40;99.90
9219;DHT22;4644;48.858;9.184;2023-04-08T03:05:39;7.30;99.90
9219;DHT22;4644;48.858;9.184;2023-04-08T03:08:06;7.40;99.90
9219;DHT22;4644;48.858;9.184;2023-04-08T03:10:33;7.40;99.90
9219;DHT22;4644;48.858;9.184;2023-04-08T03:13:00;7.40;99.90
9219;DHT22;4644;48.858;9.184;2023-04-08T03:15:27;7.30;99.90
9219;DHT22;4644;48.858;9.184;2023-04-08T03:17:54;7.40;99.90
9219;DHT22;4644;48.858;9.184;2023-04-08T03:20:21;7.40;99.90
9219;DHT22;4644;48.858;9.184;2023-04-08T03:22:49;7.30;99.90
9219;DHT22;4644;48.858;9.184;2023-04-08T03:25:16;7.30;99.90
9219;DHT22;4644;48.858;9.184;2023-04-08T03:27:43;7.30;99.90
9219;DHT22;4644;48.858;9.184;2023-04-08T03:30:11;7.40;99.90
9219;DHT22;4644;48.858;9.184;2023-04-08T03:32:38;7.30;99.90
9219;DHT22;4644;48.858;9.184;2023-04-08T03:35:05;7.30;99.90
9219;DHT22;4644;48.858;9.184;2023-04-08T03:37:33;7.30;99.90
9219;DHT22;4644;48.858;9.184;2023-04-08T03:40:02;7.30;99.90
9219;DHT22;4644;48.858;9.184;2023-04-08T03:42:29;7.30;99.90
9219;DHT22;4644;48.858;9.184;2023-04-08T03:44:56;7.30;99.90
9219;DHT22;4644;48.858;9.184;2023-04-08T03:47:24;7.30;99.90
9219;DHT22;4644;48.858;9.184;2023-04-08T03:49:52;7.30;99.90
9219;DHT22;4644;48.858;9.184;2023-04-08T03:52:19;7.30;99.90
9219;DHT22;4644;48.858;9.184;2023-04-08T03:54:46;7.30;99.90
9219;DHT22;4644;48.858;9.184;2023-04-08T03:57:15;7.30;99.90
9219;DHT22;4644;48.858;9.184;2023-04-08T03:59:42;7.30;99.90
9219;DHT22;4644;48.858;9.184;2023-04-08T04:02:09;7.30;99.90
9219;DHT22;4644;48.858;9.184;2023-04-08T04:04:36;7.30;99.90
9219;DHT22;4644;48.858;9.184;2023-04-08T04:07:03;7.30;99.90
9219;DHT22;4644;48.858;9.184;2023-04-08T04:09:30;7.20;99.90
9219;DHT22;4644;48.858;9.184;2023-04-08T04:11:57;7.20;99.90
9219;DHT22;4644;48.858;9.184;2023-04-08T04:14:25;7.20;99.90
9219;DHT22;4644;48.858;9.184;2023-04-08T04:16:52;7.10;99.90
9219;DHT22;4644;48.858;9.184;2023-04-08T04:19:19;7.10;99.90
9219;DHT22;4644;48.858;9.184;2023-04-08T04:21:46;7.00;99.90
9219;DHT22;4644;48.858;9.184;2023-04-08T04:24:13;6.90;99.90
9219;DHT22;4644;48.858;9.184;2023-04-08T04:26:41;6.90;99.90
9219;DHT22;4644;48.858;9.184;2023-04-08T04:29:08;6.80;99.90
9219;DHT22;4644;48.858;9.184;2023-04-08T04:31:36;6.80;99.90
9219;DHT22;4644;48.858;9.184;2023-04-08T04:34:04;6.80;99.90
9219;DHT22;4644;48.858;9.184;2023-04-08T04:36:31;6.70;99.90
9219;DHT22;4644;48.858;9.184;2023-04-08T04:38:58;6.70;99.90
9219;DHT22;4644;48.858;9.184;2023-04-08T04:41:25;6.70;99.90
9219;DHT22;4644;48.858;9.184;2023-04-08T04:43:53;6.60;99.90
9219;DHT22;4644;48.858;9.184;2023-04-08T04:46:20;6.60;99.90
9219;DHT22;4644;48.858;9.184;2023-04-08T04:48:48;6.60;99.90
9219;DHT22;4644;48.858;9.184;2023-04-08T04:51:15;6.50;99.90
9219;DHT22;4644;48.858;9.184;2023-04-08T04:53:43;6.50;99.90
9219;DHT22;4644;48.858;9.184;2023-04-08T04:56:09;6.50;99.90
9219;DHT22;4644;48.858;9.184;2023-04-08T04:58:36;6.50;99.90
9219;DHT22;4644;48.858;9.184;2023-04-08T05:01:04;6.50;99.90
9219;DHT22;4644;48.858;9.184;2023-04-08T05:03:31;6.40;99.90
9219;DHT22;4644;48.858;9.184;2023-04-08T05:05:59;6.40;99.90
9219;DHT22;4644;48.858;9.184;2023-04-08T05:08:26;6.40;99.90
9219;DHT22;4644;48.858;9.184;2023-04-08T05:10:53;6.40;99.90
9219;DHT22;4644;48.858;9.184;2023-04-08T05:13:21;6.40;99.90
9219;DHT22;4644;48.858;9.184;2023-04-08T05:15:48;6.40;99.90
9219;DHT22;4644;48.858;9.184;2023-04-08T05:18:15;6.40;99.90
9219;DHT22;4644;48.858;9.184;2023-04-08T05:20:42;6.30;99.90
9219;DHT22;4644;48.858;9.184;2023-04-08T05:23:11;6.30;99.90
9219;DHT22;4644;48.858;9.184;2023-04-08T05:25:38;6.40;99.90
9219;DHT22;4644;48.858;9.184;2023-04-08T05:28:05;6.40;99.90
9219;DHT22;4644;48.858;9.184;2023-04-08T05:30:32;6.40;99.90
9219;DHT22;4644;48.858;9.184;2023-04-08T05:32:59;6.40;99.90
9219;DHT22;4644;48.858;9.184;2023-04-08T05:35:26;6.40;99.90
9219;DHT22;4644;48.858;9.184;2023-04-08T05:37:53;6.40;99.90
9219;DHT22;4644;48.858;9.184;2023-04-08T05:40:22;6.50;99.90
9219;DHT22;4644;48.858;9.184;2023-04-08T05:42:49;6.60;99.90
9219;DHT22;4644;48.858;9.184;2023-04-08T05:45:16;6.60;99.90
9219;DHT22;4644;48.858;9.184;2023-04-08T05:47:44;6.70;99.90
9219;DHT22;4644;48.858;9.184;2023-04-08T05:50:11;6.70;99.90
9219;DHT22;4644;48.858;9.184;2023-04-08T05:52:41;6.80;99.90
9219;DHT22;4644;48.858;9.184;2023-04-08T05:55:09;6.80;99.90
9219;DHT22;4644;48.858;9.184;2023-04-08T05:57:37;6.90;99.90
9219;DHT22;4644;48.858;9.184;2023-04-08T06:00:07;6.90;99.90
9219;DHT22;4644;48.858;9.184;2023-04-08T06:02:35;7.00;99.90
9219;DHT22;4644;48.858;9.184;2023-04-08T06:05:02;7.00;99.90
9219;DHT22;4644;48.858;9.184;2023-04-08T06:07:30;7.10;99.90
9219;DHT22;4644;48.858;9.184;2023-04-08T06:09:58;7.10;99.90
9219;DHT22;4644;48.858;9.184;2023-04-08T06:12:25;7.20;99.90
9219;DHT22;4644;48.858;9.184;2023-04-08T06:14:55;7.30;99.90
9219;DHT22;4644;48.858;9.184;2023-04-08T06:17:22;7.30;99.90
9219;DHT22;4644;48.858;9.184;2023-04-08T06:19:49;7.30;99.90
9219;DHT22;4644;48.858;9.184;2023-04-08T06:22:16;7.40;99.90
9219;DHT22;4644;48.858;9.184;2023-04-08T06:24:43;7.40;99.90
9219;DHT22;4644;48.858;9.184;2023-04-08T06:27:10;7.50;99.90
9219;DHT22;4644;48.858;9.184;2023-04-08T06:29:37;7.60;99.90
9219;DHT22;4644;48.858;9.184;2023-04-08T06:32:06;7.60;99.90
9219;DHT22;4644;48.858;9.184;2023-04-08T06:34:33;7.70;99.90
9219;DHT22;4644;48.858;9.184;2023-04-08T06:37:00;7.70;99.90
9219;DHT22;4644;48.858;9.184;2023-04-08T06:39:27;7.80;99.90
9219;DHT22;4644;48.858;9.184;2023-04-08T06:41:55;7.80;99.90
9219;DHT22;4644;48.858;9.184;2023-04-08T06:44:22;7.80;99.90
9219;DHT22;4644;48.858;9.184;2023-04-08T06:46:49;7.90;99.90
9219;DHT22;4644;48.858;9.184;2023-04-08T06:49:18;7.90;99.90
9219;DHT22;4644;48.858;9.184;2023-04-08T06:51:45;8.10;99.90
9219;DHT22;4644;48.858;9.184;2023-04-08T06:54:12;8.20;99.90
9219;DHT22;4644;48.858;9.184;2023-04-08T06:56:39;8.20;99.90
9219;DHT22;4644;48.858;9.184;2023-04-08T06:59:06;8.30;99.90
9219;DHT22;4644;48.858;9.184;2023-04-08T07:01:33;8.30;99.90
9219;DHT22;4644;48.858;9.184;2023-04-08T07:04:00;8.40;99.90
9219;DHT22;4644;48.858;9.184;2023-04-08T07:06:29;8.50;99.90
9219;DHT22;4644;48.858;9.184;2023-04-08T07:08:56;8.50;99.90
9219;DHT22;4644;48.858;9.184;2023-04-08T07:11:23;8.60;99.90
9219;DHT22;4644;48.858;9.184;2023-04-08T07:13:50;8.80;99.90
9219;DHT22;4644;48.858;9.184;2023-04-08T07:16:17;8.80;99.90
9219;DHT22;4644;48.858;9.184;2023-04-08T07:18:44;8.80;99.90
9219;DHT22;4644;48.858;9.184;2023-04-08T07:21:12;8.90;99.90
9219;DHT22;4644;48.858;9.184;2023-04-08T07:23:40;8.90;99.90
9219;DHT22;4644;48.858;9.184;2023-04-08T07:26:07;8.90;99.90
9219;DHT22;4644;48.858;9.184;2023-04-08T07:28:34;8.80;99.90
9219;DHT22;4644;48.858;9.184;2023-04-08T07:31:12;8.90;99.90
9219;DHT22;4644;48.858;9.184;2023-04-08T07:33:39;8.90;99.90
9219;DHT22;4644;48.858;9.184;2023-04-08T07:36:08;9.00;99.90
9219;DHT22;4644;48.858;9.184;2023-04-08T07:38:35;9.10;99.90
9219;DHT22;4644;48.858;9.184;2023-04-08T07:41:03;9.20;99.90
9219;DHT22;4644;48.858;9.184;2023-04-08T07:43:32;9.30;99.90
9219;DHT22;4644;48.858;9.184;2023-04-08T07:46:02;9.30;99.90
9219;DHT22;4644;48.858;9.184;2023-04-08T07:48:29;9.50;99.90
9219;DHT22;4644;48.858;9.184;2023-04-08T07:50:57;9.50;99.90
9219;DHT22;4644;48.858;9.184;2023-04-08T07:53:24;9.60;99.90
9219;DHT22;4644;48.858;9.184;2023-04-08T07:55:52;9.70;99.90
9219;DHT22;4644;48.858;9.184;2023-04-08T07:58:20;9.80;99.90
9219;DHT22;4644;48.858;9.184;2023-04-08T08:00:48;9.90;99.90
9219;DHT22;4644;48.858;9.184;2023-04-08T08:03:17;10.10;99.90
9219;DHT22;4644;48.858;9.184;2023-04-08T08:05:44;10.00;99.90
9219;DHT22;4644;48.858;9.184;2023-04-08T08:08:11;10.20;99.90
9219;DHT22;4644;48.858;9.184;2023-04-08T08:10:38;10.20;99.90
9219;DHT22;4644;48.858;9.184;2023-04-08T08:13:06;10.20;99.90
9219;DHT22;4644;48.858;9.184;2023-04-08T08:15:34;10.30;99.90
9219;DHT22;4644;48.858;9.184;2023-04-08T08:18:02;10.40;99.90
9219;DHT22;4644;48.858;9.184;2023-04-08T08:20:29;10.50;99.90
9219;DHT22;4644;48.858;9.184;2023-04-08T08:22:56;10.60;99.90
9219;DHT22;4644;48.858;9.184;2023-04-08T08:25:23;10.60;99.90
9219;DHT22;4644;48.858;9.184;2023-04-08T08:27:50;10.70;99.90
9219;DHT22;4644;48.858;9.184;2023-04-08T08:30:18;10.70;99.90
9219;DHT22;4644;48.858;9.184;2023-04-08T08:32:48;10.90;99.90
9219;DHT22;4644;48.858;9.184;2023-04-08T08:35:16;11.10;99.90
9219;DHT22;4644;48.858;9.184;2023-04-08T08:37:43;11.30;99.90
9219;DHT22;4644;48.858;9.184;2023-04-08T08:40:12;11.60;99.90
9219;DHT22;4644;48.858;9.184;2023-04-08T08:42:39;11.80;99.90
9219;DHT22;4644;48.858;9.184;2023-04-08T08:45:07;12.00;99.90
9219;DHT22;4644;48.858;9.184;2023-04-08T08:47:34;12.20;99.90
9219;DHT22;4644;48.858;9.184;2023-04-08T08:50:03;12.50;99.90
9219;DHT22;4644;48.858;9.184;2023-04-08T08:52:30;12.50;99.90
9219;DHT22;4644;48.858;9.184;2023-04-08T08:54:58;12.50;99.90
9219;DHT22;4644;48.858;9.184;2023-04-08T08:57:25;12.60;99.90
9219;DHT22;4644;48.858;9.184;2023-04-08T08:59:54;12.70;99.90
9219;DHT22;4644;48.858;9.184;2023-04-08T09:02:25;12.70;99.90
9219;DHT22;4644;48.858;9.184;2023-04-08T09:04:57;12.80;99.90
9219;DHT22;4644;48.858;9.184;2023-04-08T09:07:26;13.00;99.90
9219;DHT22;4644;48.858;9.184;2023-04-08T09:09:55;12.80;99.90
9219;DHT22;4644;48.858;9.184;2023-04-08T09:12:23;12.80;99.90
9219;DHT22;4644;48.858;9.184;2023-04-08T09:15:02;12.80;99.90
9219;DHT22;4644;48.858;9.184;2023-04-08T09:17:33;12.80;99.90
9219;DHT22;4644;48.858;9.184;2023-04-08T09:20:05;12.80;99.90
9219;DHT22;4644;48.858;9.184;2023-04-08T09:22:54;12.80;99.90
9219;DHT22;4644;48.858;9.184;2023-04-08T09:25:22;13.00;99.90
9219;DHT22;4644;48.858;9.184;2023-04-08T09:27:50;13.00;99.90
9219;DHT22;4644;48.858;9.184;2023-04-08T09:30:19;13.10;99.90
9219;DHT22;4644;48.858;9.184;2023-04-08T09:32:47;13.20;99.90
9219;DHT22;4644;48.858;9.184;2023-04-08T09:35:16;13.20;99.90
9219;DHT22;4644;48.858;9.184;2023-04-08T09:37:45;13.30;99.90
9219;DHT22;4644;48.858;9.184;2023-04-08T09:40:12;13.10;99.90
9219;DHT22;4644;48.858;9.184;2023-04-08T09:42:44;13.00;99.90
9219;DHT22;4644;48.858;9.184;2023-04-08T09:45:15;13.00;99.90
9219;DHT22;4644;48.858;9.184;2023-04-08T09:47:50;13.00;99.90
9219;DHT22;4644;48.858;9.184;2023-04-08T09:50:24;13.30;99.90
9219;DHT22;4644;48.858;9.184;2023-04-08T09:52:59;13.50;99.90
9219;DHT22;4644;48.858;9.184;2023-04-08T09:55:29;13.70;99.90
9219;DHT22;4644;48.858;9.184;2023-04-08T09:57:59;13.70;99.90
9219;DHT22;4644;48.858;9.184;2023-04-08T10:00:31;13.50;99.90
9219;DHT22;4644;48.858;9.184;2023-04-08T10:03:05;13.70;99.90
9219;DHT22;4644;48.858;9.184;2023-04-08T10:05:36;13.90;99.70
9219;DHT22;4644;48.858;9.184;2023-04-08T10:08:06;14.00;98.20
9219;DHT22;4644;48.858;9.184;2023-04-08T10:10:34;13.90;97.60
9219;DHT22;4644;48.858;9.184;2023-04-08T10:13:02;14.00;97.70
9219;DHT22;4644;48.858;9.184;2023-04-08T10:15:30;14.10;96.40
9219;DHT22;4644;48.858;9.184;2023-04-08T10:18:31;13.90;94.60
9219;DHT22;4644;48.858;9.184;2023-04-08T10:21:02;13.70;96.30
9219;DHT22;4644;48.858;9.184;2023-04-08T10:23:56;13.40;95.90
9219;DHT22;4644;48.858;9.184;2023-04-08T10:26:33;12.90;94.30
9219;DHT22;4644;48.858;9.184;2023-04-08T10:29:30;12.70;94.30
9219;DHT22;4644;48.858;9.184;2023-04-08T10:31:57;12.60;95.80
9219;DHT22;4644;48.858;9.184;2023-04-08T10:34:26;12.50;94.10
9219;DHT22;4644;48.858;9.184;2023-04-08T10:36:54;12.50;94.80
9219;DHT22;4644;48.858;9.184;2023-04-08T10:39:25;12.40;95.20
9219;DHT22;4644;48.858;9.184;2023-04-08T10:41:53;12.40;96.10
9219;DHT22;4644;48.858;9.184;2023-04-08T10:44:22;12.30;95.30
9219;DHT22;4644;48.858;9.184;2023-04-08T10:46:51;12.30;96.40
9219;DHT22;4644;48.858;9.184;2023-04-08T10:49:18;12.20;96.00
9219;DHT22;4644;48.858;9.184;2023-04-08T10:51:46;12.00;96.30
9219;DHT22;4644;48.858;9.184;2023-04-08T10:54:15;12.00;96.50
9219;DHT22;4644;48.858;9.184;2023-04-08T10:56:46;11.90;96.20
9219;DHT22;4644;48.858;9.184;2023-04-08T10:59:13;11.80;96.50
9219;DHT22;4644;48.858;9.184;2023-04-08T11:01:43;11.70;97.00
9219;DHT22;4644;48.858;9.184;2023-04-08T11:04:14;11.70;96.70
9219;DHT22;4644;48.858;9.184;2023-04-08T11:06:44;11.70;96.50
9219;DHT22;4644;48.858;9.184;2023-04-08T11:09:12;11.70;96.80
9219;DHT22;4644;48.858;9.184;2023-04-08T11:11:41;11.80;97.70
9219;DHT22;4644;48.858;9.184;2023-04-08T11:14:10;11.70;96.80
9219;DHT22;4644;48.858;9.184;2023-04-08T11:16:38;11.70;96.90
9219;DHT22;4644;48.858;9.184;2023-04-08T11:19:06;11.80;98.80
9219;DHT22;4644;48.858;9.184;2023-04-08T11:21:35;11.90;98.00
9219;DHT22;4644;48.858;9.184;2023-04-08T11:24:07;11.80;96.70
9219;DHT22;4644;48.858;9.184;2023-04-08T11:26:37;11.70;97.10
9219;DHT22;4644;48.858;9.184;2023-04-08T11:29:05;11.60;97.20
9219;DHT22;4644;48.858;9.184;2023-04-08T11:31:33;11.60;97.30
9219;DHT22;4644;48.858;9.184;2023-04-08T11:34:01;11.60;96.80
9219;DHT22;4644;48.858;9.184;2023-04-08T11:36:28;11.60;97.10
9219;DHT22;4644;48.858;9.184;2023-04-08T11:38:56;11.60;97.40
9219;DHT22;4644;48.858;9.184;2023-04-08T11:41:23;11.60;96.90
9219;DHT22;4644;48.858;9.184;2023-04-08T11:43:55;11.60;96.90
9219;DHT22;4644;48.858;9.184;2023-04-08T11:46:22;11.60;96.70
9219;DHT22;4644;48.858;9.184;2023-04-08T11:49:02;11.50;97.00
9219;DHT22;4644;48.858;9.184;2023-04-08T11:51:29;11.60;97.00
9219;DHT22;4644;48.858;9.184;2023-04-08T11:53:56;11.60;96.80
9219;DHT22;4644;48.858;9.184;2023-04-08T11:56:25;11.60;96.80
9219;DHT22;4644;48.858;9.184;2023-04-08T11:58:55;11.70;96.80
9219;DHT22;4644;48.858;9.184;2023-04-08T12:01:22;11.60;96.90
9219;DHT22;4644;48.858;9.184;2023-04-08T12:03:56;11.60;97.10
9219;DHT22;4644;48.858;9.184;2023-04-08T12:06:25;11.60;97.20
9219;DHT22;4644;48.858;9.184;2023-04-08T12:08:54;11.60;96.70
9219;DHT22;4644;48.858;9.184;2023-04-08T12:11:21;11.60;96.80
9219;DHT22;4644;48.858;9.184;2023-04-08T12:13:48;11.60;97.20
9219;DHT22;4644;48.858;9.184;2023-04-08T12:16:17;11.60;97.40
9219;DHT22;4644;48.858;9.184;2023-04-08T12:18:44;11.70;97.40
9219;DHT22;4644;48.858;9.184;2023-04-08T12:21:11;11.70;98.50
9219;DHT22;4644;48.858;9.184;2023-04-08T12:23:40;11.80;96.80
9219;DHT22;4644;48.858;9.184;2023-04-08T12:26:07;11.60;98.50
9219;DHT22;4644;48.858;9.184;2023-04-08T12:28:34;11.70;97.10
9219;DHT22;4644;48.858;9.184;2023-04-08T12:31:01;11.70;97.30
9219;DHT22;4644;48.858;9.184;2023-04-08T12:33:29;11.80;97.60
9219;DHT22;4644;48.858;9.184;2023-04-08T12:35:56;11.90;97.00
9219;DHT22;4644;48.858;9.184;2023-04-08T12:38:24;11.90;97.70
9219;DHT22;4644;48.858;9.184;2023-04-08T12:40:53;11.90;97.70
9219;DHT22;4644;48.858;9.184;2023-04-08T12:43:21;12.00;98.20
9219;DHT22;4644;48.858;9.184;2023-04-08T12:45:49;12.00;98.00
9219;DHT22;4644;48.858;9.184;2023-04-08T12:48:16;12.10;97.60
9219;DHT22;4644;48.858;9.184;2023-04-08T12:50:43;12.10;97.30
9219;DHT22;4644;48.858;9.184;2023-04-08T12:53:10;12.10;96.90
9219;DHT22;4644;48.858;9.184;2023-04-08T12:55:37;12.10;97.50
9219;DHT22;4644;48.858;9.184;2023-04-08T12:58:06;12.10;98.00
9219;DHT22;4644;48.858;9.184;2023-04-08T13:00:33;12.10;99.60
9219;DHT22;4644;48.858;9.184;2023-04-08T13:03:03;11.90;98.30
9219;DHT22;4644;48.858;9.184;2023-04-08T13:05:30;12.10;99.00
9219;DHT22;4644;48.858;9.184;2023-04-08T13:07:58;12.20;99.20
9219;DHT22;4644;48.858;9.184;2023-04-08T13:10:25;12.20;98.70
9219;DHT22;4644;48.858;9.184;2023-04-08T13:12:52;12.20;98.90
9219;DHT22;4644;48.858;9.184;2023-04-08T13:15:21;12.20;98.20
9219;DHT22;4644;48.858;9.184;2023-04-08T13:17:48;12.30;98.50
9219;DHT22;4644;48.858;9.184;2023-04-08T13:20:15;12.30;97.80
9219;DHT22;4644;48.858;9.184;2023-04-08T13:22:42;12.20;98.10
9219;DHT22;4644;48.858;9.184;2023-04-08T13:25:09;12.20;98.80
9219;DHT22;4644;48.858;9.184;2023-04-08T13:27:37;12.20;98.90
9219;DHT22;4644;48.858;9.184;2023-04-08T13:30:05;12.10;98.70
9219;DHT22;4644;48.858;9.184;2023-04-08T13:32:33;12.10;98.70
9219;DHT22;4644;48.858;9.184;2023-04-08T13:35:01;12.10;99.80
9219;DHT22;4644;48.858;9.184;2023-04-08T13:37:29;12.00;99.10
9219;DHT22;4644;48.858;9.184;2023-04-08T13:39:56;12.00;99.00
9219;DHT22;4644;48.858;9.184;2023-04-08T13:42:23;12.00;99.60
9219;DHT22;4644;48.858;9.184;2023-04-08T13:44:50;12.10;99.90
9219;DHT22;4644;48.858;9.184;2023-04-08T13:47:17;12.10;98.80
9219;DHT22;4644;48.858;9.184;2023-04-08T13:49:45;12.00;98.70
9219;DHT22;4644;48.858;9.184;2023-04-08T13:52:12;12.00;98.90
9219;DHT22;4644;48.858;9.184;2023-04-08T13:54:40;12.00;99.10
9219;DHT22;4644;48.858;9.184;2023-04-08T13:57:07;12.10;98.60
9219;DHT22;4644;48.858;9.184;2023-04-08T13:59:34;12.20;98.50
9219;DHT22;4644;48.858;9.184;2023-04-08T14:02:01;12.40;99.50
9219;DHT22;4644;48.858;9.184;2023-04-08T14:04:28;12.60;98.10
9219;DHT22;4644;48.858;9.184;2023-04-08T14:06:57;12.80;97.80
9219;DHT22;4644;48.858;9.184;2023-04-08T14:09:24;12.90;97.40
9219;DHT22;4644;48.858;9.184;2023-04-08T14:11:52;13.00;97.10
9219;DHT22;4644;48.858;9.184;2023-04-08T14:14:19;13.10;96.40
9219;DHT22;4644;48.858;9.184;2023-04-08T14:16:46;13.10;96.70
9219;DHT22;4644;48.858;9.184;2023-04-08T14:19:14;13.20;96.40
9219;DHT22;4644;48.858;9.184;2023-04-08T14:21:41;13.30;96.50
9219;DHT22;4644;48.858;9.184;2023-04-08T14:24:09;13.00;95.70
9219;DHT22;4644;48.858;9.184;2023-04-08T14:26:36;12.90;95.60
9219;DHT22;4644;48.858;9.184;2023-04-08T14:29:06;12.90;95.90
9219;DHT22;4644;48.858;9.184;2023-04-08T14:31:34;12.80;95.80
9219;DHT22;4644;48.858;9.184;2023-04-08T14:34:02;12.70;96.40
9219;DHT22;4644;48.858;9.184;2023-04-08T14:36:29;12.70;96.20
9219;DHT22;4644;48.858;9.184;2023-04-08T14:38:57;12.50;95.70
9219;DHT22;4644;48.858;9.184;2023-04-08T14:41:26;12.40;97.30
9219;DHT22;4644;48.858;9.184;2023-04-08T14:43:53;12.40;96.10
9219;DHT22;4644;48.858;9.184;2023-04-08T14:46:20;12.30;96.10
9219;DHT22;4644;48.858;9.184;2023-04-08T14:48:47;12.30;95.60
9219;DHT22;4644;48.858;9.184;2023-04-08T14:51:14;12.30;96.00
9219;DHT22;4644;48.858;9.184;2023-04-08T14:53:41;12.30;96.10
9219;DHT22;4644;48.858;9.184;2023-04-08T14:56:08;12.20;96.30
9219;DHT22;4644;48.858;9.184;2023-04-08T14:58:37;12.10;96.80
9219;DHT22;4644;48.858;9.184;2023-04-08T15:01:04;12.20;96.50
9219;DHT22;4644;48.858;9.184;2023-04-08T15:03:31;12.00;96.40
9219;DHT22;4644;48.858;9.184;2023-04-08T15:05:58;12.00;96.80
9219;DHT22;4644;48.858;9.184;2023-04-08T15:08:26;12.00;96.80
9219;DHT22;4644;48.858;9.184;2023-04-08T15:10:53;12.00;97.60
9219;DHT22;4644;48.858;9.184;2023-04-08T15:13:21;12.00;97.80
9219;DHT22;4644;48.858;9.184;2023-04-08T15:15:50;11.90;97.20
9219;DHT22;4644;48.858;9.184;2023-04-08T15:18:17;11.80;97.50
9219;DHT22;4644;48.858;9.184;2023-04-08T15:20:44;11.70;97.80
9219;DHT22;4644;48.858;9.184;2023-04-08T15:23:11;11.50;98.10
9219;DHT22;4644;48.858;9.184;2023-04-08T15:25:38;11.60;98.40
9219;DHT22;4644;48.858;9.184;2023-04-08T15:28:05;11.50;98.80
9219;DHT22;4644;48.858;9.184;2023-04-08T15:30:33;11.40;98.90
9219;DHT22;4644;48.858;9.184;2023-04-08T15:33:03;11.50;99.90
9219;DHT22;4644;48.858;9.184;2023-04-08T15:35:30;11.60;99.90
9219;DHT22;4644;48.858;9.184;2023-04-08T15:37:58;11.80;99.40
9219;DHT22;4644;48.858;9.184;2023-04-08T15:40:25;11.80;99.90
9219;DHT22;4644;48.858;9.184;2023-04-08T15:42:52;11.90;99.30
9219;DHT22;4644;48.858;9.184;2023-04-08T15:45:19;11.80;99.60
9219;DHT22;4644;48.858;9.184;2023-04-08T15:47:46;11.70;99.70
9219;DHT22;4644;48.858;9.184;2023-04-08T15:50:15;11.80;99.40
9219;DHT22;4644;48.858;9.184;2023-04-08T15:52:42;11.60;99.60
9219;DHT22;4644;48.858;9.184;2023-04-08T15:55:13;11.70;99.90
9219;DHT22;4644;48.858;9.184;2023-04-08T15:57:40;11.80;99.90
9219;DHT22;4644;48.858;9.184;2023-04-08T16:00:08;11.60;99.50
9219;DHT22;4644;48.858;9.184;2023-04-08T16:02:35;11.60;99.90
9219;DHT22;4644;48.858;9.184;2023-04-08T16:05:03;11.60;99.90
9219;DHT22;4644;48.858;9.184;2023-04-08T16:07:31;11.60;99.90
9219;DHT22;4644;48.858;9.184;2023-04-08T16:09:58;11.50;99.90
9219;DHT22;4644;48.858;9.184;2023-04-08T16:12:26;11.50;99.90
9219;DHT22;4644;48.858;9.184;2023-04-08T16:14:53;11.30;99.90
9219;DHT22;4644;48.858;9.184;2023-04-08T16:17:20;11.20;99.90